Terminal Aerodrome Forecast
Issued by NWS

Home | Current Version | Previous Version | Text Only | Print | Product List | Glossary On
Versions: 1 2 3 4 5 6 7 8 9 10 11 12 13 14
000
FTUS45 KRIW 291700
TAFRKS
TAF
KRKS 291726Z 2918/3018 26009KT P6SM FEW080
     FM292000 26012G19KT P6SM SCT080
     FM300200 21009KT P6SM VCSH SCT090 BKN120
     FM301600 21012G18KT P6SM -SHRA BKN080=

USA.gov is the U.S. government's official web portal to all federal, state and local government web resources and services.